Philo, Ohio
Current Conditions -  °F | °C
As of 10:53 AM on Tuesday 21 Oct 2014 (Local Time) from KZZV Reporting Station
Overcast Overcast  
Wind Chill: 50°   Ceiling: 1100
Heat Index: 50°   Visibility: 10mi
Dew Point: 47°   Wind: 8mph
Humidity: 89%   Direction: 310°NW
Pressure: 29.93"   Gusts: NA
Location:  39.86°N, 81.91°W
Report Text: KZZV 211453Z AUTO 31007KT 10SM BKN011 BKN019 OVC031 10/08 A2993 RMK AO2 RAB03E44 SLP135 P0002 60002 T01000083 51014
Loading
Personal Weather Stations






























Interactive Weather Map
Tropical Storm Tracking
New forecast layout! Learn more

10-Day Weather Forecast

Advertisements
Track Severe Weather on mobile